sensor_id;sensor_type;location;lat;lon;timestamp;temperature;humidity
27026;DHT22;14565;48.626;8.978;2023-02-28T00:00:35;-2.70;99.90
27026;DHT22;14565;48.626;8.978;2023-02-28T00:03:01;-2.70;99.90
27026;DHT22;14565;48.626;8.978;2023-02-28T00:05:27;-2.80;99.90
27026;DHT22;14565;48.626;8.978;2023-02-28T00:07:53;-2.80;99.90
27026;DHT22;14565;48.626;8.978;2023-02-28T00:10:24;-2.80;99.90
27026;DHT22;14565;48.626;8.978;2023-02-28T00:12:51;-2.80;99.90
27026;DHT22;14565;48.626;8.978;2023-02-28T00:15:17;-2.80;99.90
27026;DHT22;14565;48.626;8.978;2023-02-28T00:17:43;-2.80;99.90
27026;DHT22;14565;48.626;8.978;2023-02-28T00:20:09;-2.80;99.90
27026;DHT22;14565;48.626;8.978;2023-02-28T00:22:38;-2.80;99.90
27026;DHT22;14565;48.626;8.978;2023-02-28T00:25:05;-2.90;99.90
27026;DHT22;14565;48.626;8.978;2023-02-28T00:27:32;-2.90;99.90
27026;DHT22;14565;48.626;8.978;2023-02-28T00:29:58;-2.90;99.90
27026;DHT22;14565;48.626;8.978;2023-02-28T00:32:23;-2.90;99.90
27026;DHT22;14565;48.626;8.978;2023-02-28T00:34:49;-2.90;99.90
27026;DHT22;14565;48.626;8.978;2023-02-28T00:37:14;-2.80;99.90
27026;DHT22;14565;48.626;8.978;2023-02-28T00:39:40;-3.00;99.90
27026;DHT22;14565;48.626;8.978;2023-02-28T00:42:07;-3.10;99.90
27026;DHT22;14565;48.626;8.978;2023-02-28T00:44:33;-3.10;99.90
27026;DHT22;14565;48.626;8.978;2023-02-28T00:46:59;-3.20;99.90
27026;DHT22;14565;48.626;8.978;2023-02-28T00:49:26;-3.20;99.90
27026;DHT22;14565;48.626;8.978;2023-02-28T00:51:54;-3.10;99.90
27026;DHT22;14565;48.626;8.978;2023-02-28T00:54:20;-3.20;99.90
27026;DHT22;14565;48.626;8.978;2023-02-28T00:56:46;-3.20;99.90
27026;DHT22;14565;48.626;8.978;2023-02-28T00:59:13;-3.30;99.90
27026;DHT22;14565;48.626;8.978;2023-02-28T01:01:38;-3.30;99.90
27026;DHT22;14565;48.626;8.978;2023-02-28T01:04:04;-3.30;99.90
27026;DHT22;14565;48.626;8.978;2023-02-28T01:06:30;-3.50;99.90
27026;DHT22;14565;48.626;8.978;2023-02-28T01:08:57;-3.50;99.90
27026;DHT22;14565;48.626;8.978;2023-02-28T01:11:23;-3.50;99.90
27026;DHT22;14565;48.626;8.978;2023-02-28T01:13:48;-3.60;99.90
27026;DHT22;14565;48.626;8.978;2023-02-28T01:16:14;-3.50;99.90
27026;DHT22;14565;48.626;8.978;2023-02-28T01:18:40;-3.60;99.90
27026;DHT22;14565;48.626;8.978;2023-02-28T01:21:14;-3.60;99.90
27026;DHT22;14565;48.626;8.978;2023-02-28T01:23:41;-3.60;99.90
27026;DHT22;14565;48.626;8.978;2023-02-28T01:26:21;-3.60;99.90
27026;DHT22;14565;48.626;8.978;2023-02-28T01:28:48;-3.60;99.90
27026;DHT22;14565;48.626;8.978;2023-02-28T01:31:14;-3.60;99.90
27026;DHT22;14565;48.626;8.978;2023-02-28T01:33:40;-3.50;99.90
27026;DHT22;14565;48.626;8.978;2023-02-28T01:36:11;-3.50;99.90
27026;DHT22;14565;48.626;8.978;2023-02-28T01:38:38;-3.50;99.90
27026;DHT22;14565;48.626;8.978;2023-02-28T01:41:05;-3.50;99.90
27026;DHT22;14565;48.626;8.978;2023-02-28T01:46:18;-3.50;99.90
27026;DHT22;14565;48.626;8.978;2023-02-28T01:51:37;-3.50;99.90
27026;DHT22;14565;48.626;8.978;2023-02-28T01:54:09;-3.60;99.90
27026;DHT22;14565;48.626;8.978;2023-02-28T01:56:52;-3.50;99.90
27026;DHT22;14565;48.626;8.978;2023-02-28T01:59:24;-3.50;99.90
27026;DHT22;14565;48.626;8.978;2023-02-28T02:01:51;-3.50;99.90
27026;DHT22;14565;48.626;8.978;2023-02-28T02:04:17;-3.50;99.90
27026;DHT22;14565;48.626;8.978;2023-02-28T02:06:44;-3.50;99.90
27026;DHT22;14565;48.626;8.978;2023-02-28T02:09:11;-3.50;99.90
27026;DHT22;14565;48.626;8.978;2023-02-28T02:11:40;-3.50;99.90
27026;DHT22;14565;48.626;8.978;2023-02-28T02:15:01;-3.60;99.90
27026;DHT22;14565;48.626;8.978;2023-02-28T02:17:38;-3.70;99.90
27026;DHT22;14565;48.626;8.978;2023-02-28T02:23:02;-3.50;99.90
27026;DHT22;14565;48.626;8.978;2023-02-28T02:42:01;-3.50;99.90
27026;DHT22;14565;48.626;8.978;2023-02-28T02:44:31;-3.50;99.90
27026;DHT22;14565;48.626;8.978;2023-02-28T02:47:09;-3.50;99.90
27026;DHT22;14565;48.626;8.978;2023-02-28T02:49:38;-3.50;99.90
27026;DHT22;14565;48.626;8.978;2023-02-28T02:52:08;-3.40;99.90
27026;DHT22;14565;48.626;8.978;2023-02-28T02:54:43;-3.50;99.90
27026;DHT22;14565;48.626;8.978;2023-02-28T02:57:21;-3.40;99.90
27026;DHT22;14565;48.626;8.978;2023-02-28T02:59:48;-3.40;99.90
27026;DHT22;14565;48.626;8.978;2023-02-28T03:02:16;-3.30;99.90
27026;DHT22;14565;48.626;8.978;2023-02-28T03:04:46;-3.30;99.90
27026;DHT22;14565;48.626;8.978;2023-02-28T03:07:13;-3.30;99.90
27026;DHT22;14565;48.626;8.978;2023-02-28T03:09:39;-3.30;99.90
27026;DHT22;14565;48.626;8.978;2023-02-28T03:12:08;-3.30;99.90
27026;DHT22;14565;48.626;8.978;2023-02-28T03:25:59;-3.20;99.90
27026;DHT22;14565;48.626;8.978;2023-02-28T03:28:48;-3.20;99.90
27026;DHT22;14565;48.626;8.978;2023-02-28T03:31:22;-3.30;99.90
27026;DHT22;14565;48.626;8.978;2023-02-28T03:36:42;-3.30;99.90
27026;DHT22;14565;48.626;8.978;2023-02-28T03:39:20;-3.30;99.90
27026;DHT22;14565;48.626;8.978;2023-02-28T03:41:59;-3.20;99.90
27026;DHT22;14565;48.626;8.978;2023-02-28T03:47:09;-3.10;99.90
27026;DHT22;14565;48.626;8.978;2023-02-28T03:49:42;-3.10;99.90
27026;DHT22;14565;48.626;8.978;2023-02-28T03:52:11;-3.20;99.90
27026;DHT22;14565;48.626;8.978;2023-02-28T03:54:41;-3.10;99.90
27026;DHT22;14565;48.626;8.978;2023-02-28T04:00:08;-3.10;99.90
27026;DHT22;14565;48.626;8.978;2023-02-28T04:02:35;-3.00;99.90
27026;DHT22;14565;48.626;8.978;2023-02-28T04:05:01;-3.00;99.90
27026;DHT22;14565;48.626;8.978;2023-02-28T04:07:31;-3.00;99.90
27026;DHT22;14565;48.626;8.978;2023-02-28T04:09:57;-3.00;99.90
27026;DHT22;14565;48.626;8.978;2023-02-28T04:12:23;-3.10;99.90
27026;DHT22;14565;48.626;8.978;2023-02-28T04:14:49;-3.00;99.90
27026;DHT22;14565;48.626;8.978;2023-02-28T04:17:16;-3.00;99.90
27026;DHT22;14565;48.626;8.978;2023-02-28T04:19:41;-3.10;99.90
27026;DHT22;14565;48.626;8.978;2023-02-28T04:22:08;-3.00;99.90
27026;DHT22;14565;48.626;8.978;2023-02-28T04:24:34;-3.00;99.90
27026;DHT22;14565;48.626;8.978;2023-02-28T04:27:00;-3.10;99.90
27026;DHT22;14565;48.626;8.978;2023-02-28T04:29:31;-3.00;99.90
27026;DHT22;14565;48.626;8.978;2023-02-28T04:32:00;-3.00;99.90
27026;DHT22;14565;48.626;8.978;2023-02-28T04:34:28;-3.00;99.90
27026;DHT22;14565;48.626;8.978;2023-02-28T04:36:54;-3.00;99.90
27026;DHT22;14565;48.626;8.978;2023-02-28T04:39:22;-3.00;99.90
27026;DHT22;14565;48.626;8.978;2023-02-28T04:41:48;-3.00;99.90
27026;DHT22;14565;48.626;8.978;2023-02-28T04:44:14;-3.00;99.90
27026;DHT22;14565;48.626;8.978;2023-02-28T04:46:40;-3.00;99.90
27026;DHT22;14565;48.626;8.978;2023-02-28T04:49:06;-2.90;99.90
27026;DHT22;14565;48.626;8.978;2023-02-28T04:51:32;-3.00;99.90
27026;DHT22;14565;48.626;8.978;2023-02-28T04:53:57;-2.90;99.90
27026;DHT22;14565;48.626;8.978;2023-02-28T04:56:23;-2.90;99.90
27026;DHT22;14565;48.626;8.978;2023-02-28T04:58:49;-2.90;99.90
27026;DHT22;14565;48.626;8.978;2023-02-28T05:03:42;-2.90;99.90
27026;DHT22;14565;48.626;8.978;2023-02-28T05:06:08;-2.90;99.90
27026;DHT22;14565;48.626;8.978;2023-02-28T05:08:34;-2.90;99.90
27026;DHT22;14565;48.626;8.978;2023-02-28T05:11:01;-2.80;99.90
27026;DHT22;14565;48.626;8.978;2023-02-28T05:13:27;-2.80;99.90
27026;DHT22;14565;48.626;8.978;2023-02-28T05:15:53;-2.90;99.90
27026;DHT22;14565;48.626;8.978;2023-02-28T05:18:18;-2.80;99.90
27026;DHT22;14565;48.626;8.978;2023-02-28T05:20:44;-2.80;99.90
27026;DHT22;14565;48.626;8.978;2023-02-28T05:23:13;-2.90;99.90
27026;DHT22;14565;48.626;8.978;2023-02-28T05:25:40;-2.80;99.90
27026;DHT22;14565;48.626;8.978;2023-02-28T05:28:06;-2.80;99.90
27026;DHT22;14565;48.626;8.978;2023-02-28T05:30:32;-2.90;99.90
27026;DHT22;14565;48.626;8.978;2023-02-28T05:32:59;-2.80;99.90
27026;DHT22;14565;48.626;8.978;2023-02-28T05:35:25;-2.80;99.90
27026;DHT22;14565;48.626;8.978;2023-02-28T05:37:51;-2.70;99.90
27026;DHT22;14565;48.626;8.978;2023-02-28T05:40:17;-2.80;99.90
27026;DHT22;14565;48.626;8.978;2023-02-28T05:42:46;-2.80;99.90
27026;DHT22;14565;48.626;8.978;2023-02-28T05:45:12;-2.90;99.90
27026;DHT22;14565;48.626;8.978;2023-02-28T05:47:38;-2.80;99.90
27026;DHT22;14565;48.626;8.978;2023-02-28T05:50:04;-2.80;99.90
27026;DHT22;14565;48.626;8.978;2023-02-28T05:52:31;-2.80;99.90
27026;DHT22;14565;48.626;8.978;2023-02-28T05:54:56;-2.90;99.90
27026;DHT22;14565;48.626;8.978;2023-02-28T05:57:22;-2.90;99.90
27026;DHT22;14565;48.626;8.978;2023-02-28T05:59:48;-2.80;99.90
27026;DHT22;14565;48.626;8.978;2023-02-28T06:02:15;-2.80;99.90
27026;DHT22;14565;48.626;8.978;2023-02-28T06:04:42;-2.80;99.90
27026;DHT22;14565;48.626;8.978;2023-02-28T06:07:08;-2.90;99.90
27026;DHT22;14565;48.626;8.978;2023-02-28T06:09:34;-2.90;99.90
27026;DHT22;14565;48.626;8.978;2023-02-28T06:12:01;-2.90;99.90
27026;DHT22;14565;48.626;8.978;2023-02-28T06:14:29;-2.80;99.90
27026;DHT22;14565;48.626;8.978;2023-02-28T06:16:56;-2.90;99.90
27026;DHT22;14565;48.626;8.978;2023-02-28T06:19:22;-2.90;99.90
27026;DHT22;14565;48.626;8.978;2023-02-28T06:21:51;-2.80;99.90
27026;DHT22;14565;48.626;8.978;2023-02-28T06:24:21;-2.80;99.90
27026;DHT22;14565;48.626;8.978;2023-02-28T06:26:47;-2.90;99.90
27026;DHT22;14565;48.626;8.978;2023-02-28T06:29:13;-2.80;99.90
27026;DHT22;14565;48.626;8.978;2023-02-28T06:31:43;-2.90;99.90
27026;DHT22;14565;48.626;8.978;2023-02-28T06:34:09;-2.80;99.90
27026;DHT22;14565;48.626;8.978;2023-02-28T06:36:38;-2.90;99.90
27026;DHT22;14565;48.626;8.978;2023-02-28T06:39:04;-2.80;99.90
27026;DHT22;14565;48.626;8.978;2023-02-28T06:41:30;-2.80;99.90
27026;DHT22;14565;48.626;8.978;2023-02-28T06:43:56;-2.70;99.90
27026;DHT22;14565;48.626;8.978;2023-02-28T06:46:22;-2.70;99.90
27026;DHT22;14565;48.626;8.978;2023-02-28T06:48:49;-2.70;99.90
27026;DHT22;14565;48.626;8.978;2023-02-28T06:51:18;-2.70;99.90
27026;DHT22;14565;48.626;8.978;2023-02-28T06:53:46;-2.70;99.90
27026;DHT22;14565;48.626;8.978;2023-02-28T06:56:14;-2.70;99.90
27026;DHT22;14565;48.626;8.978;2023-02-28T06:58:40;-2.70;99.90
27026;DHT22;14565;48.626;8.978;2023-02-28T07:01:07;-2.60;99.90
27026;DHT22;14565;48.626;8.978;2023-02-28T07:03:35;-2.50;99.90
27026;DHT22;14565;48.626;8.978;2023-02-28T07:06:00;-2.50;99.90
27026;DHT22;14565;48.626;8.978;2023-02-28T07:08:27;-2.50;99.90
27026;DHT22;14565;48.626;8.978;2023-02-28T07:10:56;-2.50;99.90
27026;DHT22;14565;48.626;8.978;2023-02-28T07:13:22;-2.40;99.90
27026;DHT22;14565;48.626;8.978;2023-02-28T07:16:00;-2.50;99.90
27026;DHT22;14565;48.626;8.978;2023-02-28T07:18:26;-2.40;99.90
27026;DHT22;14565;48.626;8.978;2023-02-28T07:20:52;-2.40;99.90
27026;DHT22;14565;48.626;8.978;2023-02-28T07:23:18;-2.40;99.90
27026;DHT22;14565;48.626;8.978;2023-02-28T07:25:44;-2.40;99.90
27026;DHT22;14565;48.626;8.978;2023-02-28T07:28:11;-2.30;99.90
27026;DHT22;14565;48.626;8.978;2023-02-28T07:30:37;-2.30;99.90
27026;DHT22;14565;48.626;8.978;2023-02-28T07:33:02;-2.30;99.90
27026;DHT22;14565;48.626;8.978;2023-02-28T07:35:29;-2.30;99.90
27026;DHT22;14565;48.626;8.978;2023-02-28T07:37:56;-2.20;99.90
27026;DHT22;14565;48.626;8.978;2023-02-28T07:40:22;-2.20;99.90
27026;DHT22;14565;48.626;8.978;2023-02-28T07:42:47;-2.10;99.90
27026;DHT22;14565;48.626;8.978;2023-02-28T07:45:13;-2.10;99.90
27026;DHT22;14565;48.626;8.978;2023-02-28T07:47:40;-2.10;99.90
27026;DHT22;14565;48.626;8.978;2023-02-28T07:50:08;-2.20;99.90
27026;DHT22;14565;48.626;8.978;2023-02-28T07:52:36;-2.10;99.90
27026;DHT22;14565;48.626;8.978;2023-02-28T07:55:03;-2.10;99.90
27026;DHT22;14565;48.626;8.978;2023-02-28T07:57:29;-2.10;99.90
27026;DHT22;14565;48.626;8.978;2023-02-28T07:59:55;-2.10;99.90
27026;DHT22;14565;48.626;8.978;2023-02-28T08:02:21;-2.00;99.90
27026;DHT22;14565;48.626;8.978;2023-02-28T08:04:46;-2.00;99.90
27026;DHT22;14565;48.626;8.978;2023-02-28T08:07:13;-1.90;99.90
27026;DHT22;14565;48.626;8.978;2023-02-28T08:09:40;-2.00;99.90
27026;DHT22;14565;48.626;8.978;2023-02-28T08:12:09;-2.00;99.90
27026;DHT22;14565;48.626;8.978;2023-02-28T08:14:35;-1.90;99.90
27026;DHT22;14565;48.626;8.978;2023-02-28T08:17:01;-1.90;99.90
27026;DHT22;14565;48.626;8.978;2023-02-28T08:19:27;-1.90;99.90
27026;DHT22;14565;48.626;8.978;2023-02-28T08:21:54;-1.80;99.90
27026;DHT22;14565;48.626;8.978;2023-02-28T08:24:20;-1.90;99.90
27026;DHT22;14565;48.626;8.978;2023-02-28T08:26:45;-1.90;99.90
27026;DHT22;14565;48.626;8.978;2023-02-28T08:29:11;-1.90;99.90
27026;DHT22;14565;48.626;8.978;2023-02-28T08:31:37;-1.80;99.90
27026;DHT22;14565;48.626;8.978;2023-02-28T08:34:07;-1.80;99.90
27026;DHT22;14565;48.626;8.978;2023-02-28T08:36:33;-1.70;99.90
27026;DHT22;14565;48.626;8.978;2023-02-28T08:38:59;-1.60;99.90
27026;DHT22;14565;48.626;8.978;2023-02-28T08:41:25;-1.50;99.90
27026;DHT22;14565;48.626;8.978;2023-02-28T08:43:51;-1.40;99.90
27026;DHT22;14565;48.626;8.978;2023-02-28T08:46:17;-1.30;99.90
27026;DHT22;14565;48.626;8.978;2023-02-28T08:48:43;-1.60;99.90
27026;DHT22;14565;48.626;8.978;2023-02-28T08:51:14;-1.50;99.90
27026;DHT22;14565;48.626;8.978;2023-02-28T08:53:41;-1.60;99.90
27026;DHT22;14565;48.626;8.978;2023-02-28T08:56:12;-1.60;99.90
27026;DHT22;14565;48.626;8.978;2023-02-28T08:58:38;-1.40;99.90
27026;DHT22;14565;48.626;8.978;2023-02-28T09:03:34;-1.30;99.90
27026;DHT22;14565;48.626;8.978;2023-02-28T09:06:00;-1.10;99.90
27026;DHT22;14565;48.626;8.978;2023-02-28T09:08:28;-1.30;99.90
27026;DHT22;14565;48.626;8.978;2023-02-28T09:10:54;-1.40;99.90
27026;DHT22;14565;48.626;8.978;2023-02-28T09:13:22;-1.40;99.90
27026;DHT22;14565;48.626;8.978;2023-02-28T09:15:47;-1.30;99.90
27026;DHT22;14565;48.626;8.978;2023-02-28T09:18:13;-1.30;99.90
27026;DHT22;14565;48.626;8.978;2023-02-28T09:20:40;-1.30;99.90
27026;DHT22;14565;48.626;8.978;2023-02-28T09:23:07;-1.30;99.90
27026;DHT22;14565;48.626;8.978;2023-02-28T09:25:34;-1.40;99.90
27026;DHT22;14565;48.626;8.978;2023-02-28T09:27:59;-1.30;99.90
27026;DHT22;14565;48.626;8.978;2023-02-28T09:30:25;-1.40;99.90
27026;DHT22;14565;48.626;8.978;2023-02-28T09:32:51;-1.20;99.90
27026;DHT22;14565;48.626;8.978;2023-02-28T09:35:20;-1.20;99.90
27026;DHT22;14565;48.626;8.978;2023-02-28T09:37:47;-1.10;99.90
27026;DHT22;14565;48.626;8.978;2023-02-28T09:40:14;-1.10;99.90
27026;DHT22;14565;48.626;8.978;2023-02-28T09:42:46;-1.00;99.90
27026;DHT22;14565;48.626;8.978;2023-02-28T09:47:48;-0.80;99.90
27026;DHT22;14565;48.626;8.978;2023-02-28T09:52:48;-0.60;99.90
27026;DHT22;14565;48.626;8.978;2023-02-28T09:55:19;-0.80;99.90
27026;DHT22;14565;48.626;8.978;2023-02-28T09:57:45;-0.80;99.90
27026;DHT22;14565;48.626;8.978;2023-02-28T10:05:28;-0.70;99.90
27026;DHT22;14565;48.626;8.978;2023-02-28T10:08:16;-0.50;99.90
27026;DHT22;14565;48.626;8.978;2023-02-28T10:10:55;-0.50;99.90
27026;DHT22;14565;48.626;8.978;2023-02-28T10:18:56;-0.70;99.90
27026;DHT22;14565;48.626;8.978;2023-02-28T10:21:29;-0.40;99.90
27026;DHT22;14565;48.626;8.978;2023-02-28T10:26:48;-0.30;99.90
27026;DHT22;14565;48.626;8.978;2023-02-28T10:29:18;-0.30;99.90
27026;DHT22;14565;48.626;8.978;2023-02-28T10:31:43;-0.10;99.90
27026;DHT22;14565;48.626;8.978;2023-02-28T10:34:12;-0.20;99.90
27026;DHT22;14565;48.626;8.978;2023-02-28T10:36:38;-0.30;99.90
27026;DHT22;14565;48.626;8.978;2023-02-28T10:39:34;-0.10;99.90
27026;DHT22;14565;48.626;8.978;2023-02-28T10:42:01;0.20;99.90
27026;DHT22;14565;48.626;8.978;2023-02-28T10:44:26;0.50;99.90
27026;DHT22;14565;48.626;8.978;2023-02-28T10:46:52;0.30;99.90
27026;DHT22;14565;48.626;8.978;2023-02-28T10:49:26;0.50;99.90
27026;DHT22;14565;48.626;8.978;2023-02-28T10:52:00;0.70;99.90
27026;DHT22;14565;48.626;8.978;2023-02-28T10:54:31;0.50;99.90
27026;DHT22;14565;48.626;8.978;2023-02-28T10:57:21;0.60;99.90
27026;DHT22;14565;48.626;8.978;2023-02-28T11:00:05;0.60;99.90
27026;DHT22;14565;48.626;8.978;2023-02-28T11:02:35;0.40;99.90
27026;DHT22;14565;48.626;8.978;2023-02-28T11:05:04;0.70;99.90
27026;DHT22;14565;48.626;8.978;2023-02-28T11:07:55;0.60;99.90
27026;DHT22;14565;48.626;8.978;2023-02-28T11:10:24;0.80;99.90
27026;DHT22;14565;48.626;8.978;2023-02-28T11:12:55;0.80;99.90
27026;DHT22;14565;48.626;8.978;2023-02-28T11:15:24;1.00;99.90
27026;DHT22;14565;48.626;8.978;2023-02-28T11:20:26;0.90;99.90
27026;DHT22;14565;48.626;8.978;2023-02-28T11:22:53;0.70;99.90
27026;DHT22;14565;48.626;8.978;2023-02-28T11:25:34;0.60;99.90
27026;DHT22;14565;48.626;8.978;2023-02-28T11:28:04;0.70;99.90
27026;DHT22;14565;48.626;8.978;2023-02-28T11:30:41;0.80;99.90
27026;DHT22;14565;48.626;8.978;2023-02-28T11:35:45;1.00;99.90
27026;DHT22;14565;48.626;8.978;2023-02-28T11:38:13;1.20;99.90
27026;DHT22;14565;48.626;8.978;2023-02-28T11:52:30;1.10;99.90
27026;DHT22;14565;48.626;8.978;2023-02-28T11:57:56;1.30;99.90
27026;DHT22;14565;48.626;8.978;2023-02-28T12:05:48;1.00;99.90
27026;DHT22;14565;48.626;8.978;2023-02-28T12:08:23;1.20;99.90
27026;DHT22;14565;48.626;8.978;2023-02-28T12:11:11;1.30;99.90
27026;DHT22;14565;48.626;8.978;2023-02-28T12:14:14;1.70;99.90
27026;DHT22;14565;48.626;8.978;2023-02-28T12:27:43;2.20;99.90
27026;DHT22;14565;48.626;8.978;2023-02-28T12:30:22;1.80;99.90
27026;DHT22;14565;48.626;8.978;2023-02-28T12:33:03;1.60;99.90
27026;DHT22;14565;48.626;8.978;2023-02-28T12:35:52;1.50;99.90
27026;DHT22;14565;48.626;8.978;2023-02-28T12:38:59;1.70;99.90
27026;DHT22;14565;48.626;8.978;2023-02-28T12:44:26;2.10;99.90
27026;DHT22;14565;48.626;8.978;2023-02-28T12:47:03;2.20;99.90
27026;DHT22;14565;48.626;8.978;2023-02-28T12:51:57;2.20;99.90
27026;DHT22;14565;48.626;8.978;2023-02-28T12:54:42;1.90;99.90
27026;DHT22;14565;48.626;8.978;2023-02-28T12:57:34;2.10;99.90
27026;DHT22;14565;48.626;8.978;2023-02-28T13:00:23;2.10;99.90
27026;DHT22;14565;48.626;8.978;2023-02-28T13:10:51;2.30;99.90
27026;DHT22;14565;48.626;8.978;2023-02-28T13:13:25;2.60;99.90
27026;DHT22;14565;48.626;8.978;2023-02-28T13:18:30;2.80;99.90
27026;DHT22;14565;48.626;8.978;2023-02-28T13:20:57;2.70;99.90
27026;DHT22;14565;48.626;8.978;2023-02-28T13:26:12;2.80;99.90
27026;DHT22;14565;48.626;8.978;2023-02-28T13:29:42;3.00;99.90
27026;DHT22;14565;48.626;8.978;2023-02-28T13:39:59;2.90;99.90
27026;DHT22;14565;48.626;8.978;2023-02-28T13:42:36;2.90;99.90
27026;DHT22;14565;48.626;8.978;2023-02-28T13:47:48;2.90;99.90
27026;DHT22;14565;48.626;8.978;2023-02-28T13:55:31;2.90;99.90
27026;DHT22;14565;48.626;8.978;2023-02-28T13:58:20;2.90;99.90
27026;DHT22;14565;48.626;8.978;2023-02-28T14:01:15;3.00;99.90
27026;DHT22;14565;48.626;8.978;2023-02-28T14:06:53;3.20;99.90
27026;DHT22;14565;48.626;8.978;2023-02-28T14:11:53;3.10;99.90
27026;DHT22;14565;48.626;8.978;2023-02-28T14:17:01;3.40;99.90
27026;DHT22;14565;48.626;8.978;2023-02-28T14:19:31;3.20;99.90
27026;DHT22;14565;48.626;8.978;2023-02-28T14:39:47;3.20;99.90
27026;DHT22;14565;48.626;8.978;2023-02-28T17:20:31;3.30;99.90
27026;DHT22;14565;48.626;8.978;2023-02-28T17:22:57;1.80;99.90
27026;DHT22;14565;48.626;8.978;2023-02-28T17:25:23;1.70;99.90
27026;DHT22;14565;48.626;8.978;2023-02-28T17:32:46;1.70;99.90
27026;DHT22;14565;48.626;8.978;2023-02-28T17:35:12;1.50;99.90
27026;DHT22;14565;48.626;8.978;2023-02-28T17:37:38;1.40;99.90
27026;DHT22;14565;48.626;8.978;2023-02-28T17:40:04;1.40;99.90
27026;DHT22;14565;48.626;8.978;2023-02-28T17:42:30;1.40;99.90
27026;DHT22;14565;48.626;8.978;2023-02-28T17:44:56;1.40;99.90
27026;DHT22;14565;48.626;8.978;2023-02-28T17:47:21;1.30;99.90
27026;DHT22;14565;48.626;8.978;2023-02-28T17:49:47;1.30;99.90
27026;DHT22;14565;48.626;8.978;2023-02-28T17:54:38;1.10;99.90
27026;DHT22;14565;48.626;8.978;2023-02-28T17:57:04;1.10;99.90
27026;DHT22;14565;48.626;8.978;2023-02-28T17:59:30;1.20;99.90
27026;DHT22;14565;48.626;8.978;2023-02-28T18:14:21;1.10;99.90
27026;DHT22;14565;48.626;8.978;2023-02-28T18:16:48;1.00;99.90
27026;DHT22;14565;48.626;8.978;2023-02-28T18:19:14;1.10;99.90
27026;DHT22;14565;48.626;8.978;2023-02-28T18:31:26;1.00;99.90
27026;DHT22;14565;48.626;8.978;2023-02-28T18:33:52;0.90;99.90
27026;DHT22;14565;48.626;8.978;2023-02-28T18:36:19;0.80;99.90
27026;DHT22;14565;48.626;8.978;2023-02-28T18:38:46;0.70;99.90
27026;DHT22;14565;48.626;8.978;2023-02-28T18:41:12;0.70;99.90
27026;DHT22;14565;48.626;8.978;2023-02-28T18:43:38;0.70;99.90
27026;DHT22;14565;48.626;8.978;2023-02-28T18:48:31;0.70;99.90
27026;DHT22;14565;48.626;8.978;2023-02-28T18:50:57;0.60;99.90
27026;DHT22;14565;48.626;8.978;2023-02-28T18:53:22;0.50;99.90
27026;DHT22;14565;48.626;8.978;2023-02-28T18:55:48;0.50;99.90
27026;DHT22;14565;48.626;8.978;2023-02-28T18:58:14;0.50;99.90
27026;DHT22;14565;48.626;8.978;2023-02-28T19:00:40;0.50;99.90
27026;DHT22;14565;48.626;8.978;2023-02-28T19:03:06;0.40;99.90
27026;DHT22;14565;48.626;8.978;2023-02-28T19:05:32;0.40;99.90
27026;DHT22;14565;48.626;8.978;2023-02-28T19:08:02;0.30;99.90
27026;DHT22;14565;48.626;8.978;2023-02-28T19:10:29;0.20;99.90
27026;DHT22;14565;48.626;8.978;2023-02-28T19:12:55;0.10;99.90
27026;DHT22;14565;48.626;8.978;2023-02-28T19:15:21;0.20;99.90
27026;DHT22;14565;48.626;8.978;2023-02-28T19:17:46;0.10;99.90
27026;DHT22;14565;48.626;8.978;2023-02-28T19:20:12;0.20;99.90
27026;DHT22;14565;48.626;8.978;2023-02-28T19:22:38;0.10;99.90
27026;DHT22;14565;48.626;8.978;2023-02-28T19:25:05;0.10;99.90
27026;DHT22;14565;48.626;8.978;2023-02-28T19:27:31;0.10;99.90
27026;DHT22;14565;48.626;8.978;2023-02-28T19:29:56;0.00;99.90
27026;DHT22;14565;48.626;8.978;2023-02-28T19:32:24;-0.10;99.90
27026;DHT22;14565;48.626;8.978;2023-02-28T19:34:50;-0.20;99.90
27026;DHT22;14565;48.626;8.978;2023-02-28T19:37:16;-0.20;99.90
27026;DHT22;14565;48.626;8.978;2023-02-28T19:39:43;-0.30;99.90
27026;DHT22;14565;48.626;8.978;2023-02-28T19:42:12;-0.30;99.90
27026;DHT22;14565;48.626;8.978;2023-02-28T19:51:56;-0.30;99.90
27026;DHT22;14565;48.626;8.978;2023-02-28T19:54:23;-0.30;99.90
27026;DHT22;14565;48.626;8.978;2023-02-28T19:59:15;-0.30;99.90
27026;DHT22;14565;48.626;8.978;2023-02-28T20:01:40;-0.40;99.90
27026;DHT22;14565;48.626;8.978;2023-02-28T20:04:06;-0.40;99.90
27026;DHT22;14565;48.626;8.978;2023-02-28T20:06:32;-0.40;99.90
27026;DHT22;14565;48.626;8.978;2023-02-28T20:08:58;-0.40;99.90
27026;DHT22;14565;48.626;8.978;2023-02-28T20:11:33;-0.50;99.90
27026;DHT22;14565;48.626;8.978;2023-02-28T20:13:59;-0.60;99.90
27026;DHT22;14565;48.626;8.978;2023-02-28T20:16:29;-0.80;99.90
27026;DHT22;14565;48.626;8.978;2023-02-28T20:18:55;-0.90;99.90
27026;DHT22;14565;48.626;8.978;2023-02-28T20:21:21;-0.90;99.90
27026;DHT22;14565;48.626;8.978;2023-02-28T20:23:47;-1.00;99.90
27026;DHT22;14565;48.626;8.978;2023-02-28T20:26:14;-1.10;99.90
27026;DHT22;14565;48.626;8.978;2023-02-28T20:28:42;-1.30;99.90
27026;DHT22;14565;48.626;8.978;2023-02-28T20:31:11;-1.40;99.90
27026;DHT22;14565;48.626;8.978;2023-02-28T20:33:39;-1.50;99.90
27026;DHT22;14565;48.626;8.978;2023-02-28T20:36:04;-1.50;99.90
27026;DHT22;14565;48.626;8.978;2023-02-28T20:38:31;-1.50;99.90
27026;DHT22;14565;48.626;8.978;2023-02-28T20:41:00;-1.60;99.90
27026;DHT22;14565;48.626;8.978;2023-02-28T20:43:27;-1.60;99.90
27026;DHT22;14565;48.626;8.978;2023-02-28T20:45:54;-1.50;99.90
27026;DHT22;14565;48.626;8.978;2023-02-28T20:48:22;-1.30;99.90
27026;DHT22;14565;48.626;8.978;2023-02-28T20:50:49;-1.20;99.90
27026;DHT22;14565;48.626;8.978;2023-02-28T20:53:16;-1.20;99.90
27026;DHT22;14565;48.626;8.978;2023-02-28T20:55:41;-1.30;99.90
27026;DHT22;14565;48.626;8.978;2023-02-28T20:58:07;-1.30;99.90
27026;DHT22;14565;48.626;8.978;2023-02-28T21:00:32;-1.40;99.90
27026;DHT22;14565;48.626;8.978;2023-02-28T21:02:58;-1.50;99.90
27026;DHT22;14565;48.626;8.978;2023-02-28T21:05:24;-1.70;99.90
27026;DHT22;14565;48.626;8.978;2023-02-28T21:07:49;-1.70;99.90
27026;DHT22;14565;48.626;8.978;2023-02-28T21:10:15;-1.80;99.90
27026;DHT22;14565;48.626;8.978;2023-02-28T21:12:41;-1.80;99.90
27026;DHT22;14565;48.626;8.978;2023-02-28T21:15:07;-1.80;99.90
27026;DHT22;14565;48.626;8.978;2023-02-28T21:17:33;-1.80;99.90
27026;DHT22;14565;48.626;8.978;2023-02-28T21:19:59;-1.90;99.90
27026;DHT22;14565;48.626;8.978;2023-02-28T21:22:24;-2.00;99.90
27026;DHT22;14565;48.626;8.978;2023-02-28T21:24:50;-2.00;99.90
27026;DHT22;14565;48.626;8.978;2023-02-28T21:27:15;-2.10;99.90
27026;DHT22;14565;48.626;8.978;2023-02-28T21:29:41;-2.10;99.90
27026;DHT22;14565;48.626;8.978;2023-02-28T21:32:07;-2.10;99.90
27026;DHT22;14565;48.626;8.978;2023-02-28T21:34:32;-2.10;99.90
27026;DHT22;14565;48.626;8.978;2023-02-28T21:36:58;-2.00;99.90
27026;DHT22;14565;48.626;8.978;2023-02-28T21:39:25;-2.00;99.90
27026;DHT22;14565;48.626;8.978;2023-02-28T21:41:53;-2.10;99.90
27026;DHT22;14565;48.626;8.978;2023-02-28T21:44:19;-2.10;99.90
27026;DHT22;14565;48.626;8.978;2023-02-28T21:46:48;-2.10;99.90
27026;DHT22;14565;48.626;8.978;2023-02-28T21:49:15;-2.10;99.90